Mid Calder, United Kingdom
Current Conditions -  °F | °C
As of 9:20 PM on Saturday 22 Nov 2014 (Local Time) from EGPH Reporting Station
Clear Clear  
Wind Chill: 42°   Ceiling: Unl
Heat Index: 45°   Visibility: 6mi
Dew Point: 43°   Wind: 5mph
Humidity: 93%   Direction: 280°W
Pressure: 29.88"   Gusts: NA
Location:  55.89°N, 3.48°W
Report Text: EGPH 222120Z 28004KT 250V320 CAVOK 07/06 Q1012
Loading
Personal Weather Stations






























Interactive Weather Map New forecast layout! Learn more

10-Day Weather Forecast

Advertisements
Track Severe Weather on mobile